Weather at Central Wisconsin Airport

Public forecast

Using degrees Fahrenheit for public forecast. Weather courtesy of forecast.io.

Current aviation weather report (METAR) for Central Wisconsin Airport

Retrieved 2021/06/20 10:15 UTC (3 minutes ago):

KCWA 201015Z AUTO 06006KT 10SM CLR 11/10 A2972 RMK AO2

Aviation forecast (TAF) for Central Wisconsin Airport

Retrieved 2021/06/20 06:22 UTC (4 hours ago):

TAF KCWA 200520Z 2006/2106 12003KT P6SM SCT200 FM201800 16008G16KT P6SM SHRA OVC035 FM201900 16009G16KT P6SM -SHRA OVC029 FM202000 16009G16KT 5SM SHRA OVC018 TEMPO 2020/2024 3SM -TSRA BKN008CB FM210000 20006KT 4SM SHRA OVC004 FM210200 27008G19KT P6SM SHRA BKN005 AMD LTD TO CLD VIS AND WIND TIL 201100